• Join FlightAware (Why Join?)
  • Login
  • US Flag 
05:32PM EDT


 

Airport Tracker/Info


-or-


 

Live Flight TrackerFlight Track Log ✈ SWA1802 ✈ 01-Jun-2013 ✈ KALB - KMCO

Flight Track Log - Related Links

Times and Time Zones

All times are in EDT time to prevent confusion due to time zone crossing. See the SWA1802 flight status page for this flight to view local times or setup timezone preferences in your user account.

Time Position Orientation Groundspeed Altitude Reporting Facility
EDT Latitude Longitude Course Direction KTS MPH feet Rate Location/Type
06:44AM 42.7278 -73.8081 214° Southwest 147 169 1,400  Level Boston Center
06:45AM 42.6833 -73.8494 214° Southwest 203 234 3,500 1,920 Climbing Boston Center
06:46AM 42.6719 -73.9367 260° West 234 269 5,600 2,700 Climbing Boston Center
06:47AM 42.6706 -74.0356 269° West 260 299 9,000 2,880 Climbing Boston Center
06:48AM 42.6667 -74.1542 267° West 275 316 11,400 2,700 Climbing Boston Center
06:49AM 42.6669 -74.2756 270° West 321 369 14,500 2,700 Climbing Boston Center
06:50AM 42.6011 -74.3525 221° Southwest 283 326 16,800 2,280 Climbing Boston Center
06:51AM 42.5231 -74.2742 144° Southeast 216 249 19,100 2,220 Climbing Boston Center
06:52AM 42.4522 -74.1508 128° Southeast 273 314 21,300 2,280 Climbing Boston Center
06:53AM 42.3769 -74.0253 129° Southeast 367 422 23,700 2,100 Climbing Boston Center
06:54AM 42.2778 -73.9469 150° Southeast 392 451 25,600 1,740 Climbing Boston Center
06:55AM 42.1550 -73.9383 177° South 405 466 27,200 1,500 Climbing Boston Center
06:56AM 42.0281 -73.9297 177° South 432 497 28,700 1,380 Climbing Boston Center
06:57AM 41.9064 -73.9772 196° South 443 510 30,000 1,500 Climbing Boston Center
06:59AM 41.6436 -74.0967 199° South 472 543 33,600 1,680 Climbing New York Center
07:00AM 41.5256 -74.1489 198° South 467 537 35,300 1,200 Climbing New York Center
07:01AM 41.4053 -74.2036 199° South 462 532 36,000 300 Climbing New York Center
07:02AM 41.2706 -74.2575 197° South 456 525 36,000  Level New York Center
07:03AM 41.1522 -74.3119 199° South 456 525 36,000  Level New York Center
07:04AM 41.0342 -74.3608 197° South 451 519 36,000  Level New York Center
07:05AM 40.9136 -74.4147 199° South 451 519 36,000  Level New York Center
07:06AM 40.7953 -74.4689 199° South 451 519 36,000  Level New York Center
07:07AM 40.6728 -74.5222 198° South 451 519 36,000  Level New York Center
07:08AM 40.5525 -74.5731 198° South 451 519 36,000  Level New York Center
07:10AM 40.3119 -74.6775 198° South 447 514 36,000  Level Washington Center
07:11AM 40.1917 -74.7333 200° South 452 520 36,000  Level Washington Center
07:12AM 40.0711 -74.7836 198° South 452 520 36,000  Level Washington Center
07:13AM 39.9631 -74.8308 199° South 457 526 36,000  Level Washington Center
07:14AM 39.8303 -74.8864 198° South 465 535 36,000  Level Washington Center
07:15AM 39.7181 -74.9361 199° South 465 535 36,000  Level Washington Center
07:16AM 39.5953 -74.9856 197° South 460 529 36,000  Level Washington Center
07:17AM 39.4767 -75.0403 200° South 460 529 36,000  Level Washington Center
07:18AM 39.3561 -75.0897 198° South 460 529 36,000  Level Washington Center
07:19AM 39.2375 -75.1386 198° South 460 529 36,000  Level Washington Center
07:20AM 39.1169 -75.1903 198° South 460 529 36,000  Level Washington Center
07:21AM 38.9961 -75.2417 198° South 460 529 36,000  Level Washington Center
07:22AM 38.8733 -75.2931 198° South 460 529 36,000  Level Washington Center
07:23AM 38.7503 -75.3442 198° South 460 529 36,000  Level Washington Center
07:24AM 38.6294 -75.3922 197° South 460 529 36,000  Level Washington Center
07:25AM 38.5150 -75.4669 207° Southwest 460 529 36,000  Level Washington Center
07:26AM 38.3983 -75.5333 204° Southwest 460 529 36,000  Level Washington Center
07:27AM 38.2817 -75.6050 206° Southwest 466 536 36,000  Level Washington Center
07:28AM 38.1669 -75.6764 206° Southwest 466 536 36,000  Level Washington Center
07:29AM 38.0522 -75.7472 206° Southwest 466 536 36,000  Level Washington Center
07:30AM 37.9372 -75.8233 208° Southwest 466 536 36,000  Level Washington Center
07:31AM 37.8203 -75.8861 203° Southwest 466 536 36,000  Level Washington Center
07:32AM 37.7056 -75.9592 207° Southwest 461 531 36,000  Level Washington Center
07:33AM 37.5925 -76.0294 206° Southwest 461 531 36,000  Level Washington Center
07:34AM 37.4756 -76.0994 205° Southwest 467 537 36,000  Level Washington Center
07:35AM 37.3583 -76.1642 204° Southwest 467 537 36,000  Level Washington Center
07:36AM 37.2392 -76.2311 204° Southwest 467 537 36,000  Level Washington Center
07:37AM 37.1242 -76.3031 207° Southwest 461 531 36,000  Level Washington Center
07:38AM 37.0069 -76.3669 204° Southwest 466 536 36,000  Level Washington Center
07:39AM 36.8917 -76.4358 206° Southwest 461 531 36,000  Level Washington Center
07:40AM 36.7764 -76.5022 205° Southwest 461 531 36,000  Level Washington Center
07:41AM 36.6506 -76.5833 207° Southwest 461 531 36,000  Level Washington Center
07:42AM 36.5353 -76.6492 205° Southwest 461 531 36,000  Level Washington Center
07:43AM 36.4200 -76.7147 205° Southwest 461 531 36,000  Level Washington Center
07:44AM 36.3044 -76.7775 204° Southwest 461 531 36,000  Level Washington Center
07:45AM 36.1911 -76.8453 206° Southwest 456 525 36,000  Level Washington Center
07:46AM 36.0758 -76.9103 205° Southwest 456 525 36,000  Level Washington Center
07:47AM 35.9583 -76.9753 204° Southwest 461 531 36,000  Level Washington Center
07:48AM 35.8406 -77.0422 205° Southwest 461 531 36,000  Level Washington Center
07:49AM 35.7250 -77.1067 204° Southwest 461 531 36,000  Level Washington Center
07:50AM 35.6261 -77.1661 206° Southwest 456 525 36,000  Level Washington Center
07:51AM 35.5106 -77.2328 205° Southwest 456 525 36,000  Level Washington Center
07:52AM 35.3950 -77.2967 204° Southwest 456 525 36,000  Level Washington Center
07:53AM 35.2814 -77.3606 205° Southwest 456 525 36,000  Level Washington Center
07:54AM 35.1656 -77.4239 204° Southwest 456 525 36,000  Level Washington Center
07:55AM 35.0497 -77.4872 204° Southwest 456 525 36,000  Level Washington Center
07:56AM 34.9383 -77.5506 205° Southwest 456 525 36,000  Level Washington Center
07:57AM 34.8267 -77.6136 205° Southwest 451 519 36,000  Level Washington Center
07:58AM 34.7128 -77.6764 204° Southwest 445 512 36,000  Level Washington Center
07:59AM 34.6011 -77.7392 205° Southwest 445 512 36,000  Level Washington Center
08:00AM 34.4914 -77.8019 205° Southwest 445 512 36,000  Level Washington Center
08:01AM 34.3778 -77.8617 203° Southwest 445 512 36,000  Level Washington Center
08:02AM 34.2581 -77.9011 195° South 445 512 36,000  Level Washington Center
08:03AM 34.1364 -77.9378 194° South 450 518 36,000  Level Washington Center
08:05AM 33.8694 -78.0131 193° South 461 531 36,000  Level Jacksonville Center
08:06AM 33.7497 -78.0469 193° South 459 528 36,000  Level Jacksonville Center
08:07AM 33.6342 -78.0833 195° South 458 527 36,000  Level Jacksonville Center
08:08AM 33.5103 -78.1175 193° South 458 527 36,000  Level Jacksonville Center
08:09AM 33.3864 -78.1539 194° South 458 527 36,000  Level Jacksonville Center
08:10AM 33.2606 -78.1881 193° South 465 535 36,000  Level Jacksonville Center
08:11AM 33.1364 -78.2217 193° South 465 535 36,000  Level Jacksonville Center
08:12AM 33.0106 -78.2581 194° South 465 535 36,000  Level Jacksonville Center
08:13AM 32.8844 -78.2942 194° South 465 535 36,000  Level Jacksonville Center
08:14AM 32.7606 -78.3303 194° South 465 535 36,000  Level Jacksonville Center
08:15AM 32.6367 -78.3636 193° South 465 535 36,000  Level Jacksonville Center
08:16AM 32.5125 -78.3969 193° South 465 535 36,000  Level Jacksonville Center
08:17AM 32.3886 -78.4325 194° South 465 535 36,000  Level Jacksonville Center
08:18AM 32.2689 -78.4703 195° South 465 535 36,000  Level Jacksonville Center
08:19AM 32.1469 -78.5056 194° South 459 528 36,000  Level Jacksonville Center
08:20AM 32.0228 -78.5408 194° South 454 522 36,000  Level Jacksonville Center
08:21AM 31.9031 -78.5761 194° South 454 522 36,000  Level Jacksonville Center
08:22AM 31.7811 -78.6111 194° South 448 516 36,000  Level Jacksonville Center
08:23AM 31.6611 -78.6458 194° South 448 516 36,000  Level Jacksonville Center
08:24AM 31.5392 -78.6806 194° South 448 516 36,000  Level Jacksonville Center
08:25AM 31.4214 -78.7153 194° South 448 516 36,000  Level Jacksonville Center
08:26AM 31.2972 -78.7522 194° South 453 521 36,000  Level Jacksonville Center
08:27AM 31.1792 -78.7794 191° South 446 513 36,000  Level Jacksonville Center
08:28AM 31.0592 -78.8161 195° South 446 513 36,000  Level Jacksonville Center
08:29AM 30.9247 -78.8533 193° South 452 520 36,000  Level Jacksonville Center
08:30AM 30.8069 -78.8900 195° South 440 506 36,000  Level Jacksonville Center
08:31AM 30.6786 -78.9242 193° South 454 522 36,000  Level Jacksonville Center
08:32AM 30.5797 -78.9511 193° South 454 522 36,000  Level Miami Center
08:33AM 30.4625 -78.9850 194° South 454 522 36,000  Level Miami Center
08:34AM 30.3511 -79.0525 208° Southwest 443 510 36,000  Level Miami Center
08:35AM 30.2456 -79.1319 213° Southwest 448 516 36,000  Level Miami Center
08:36AM 30.1422 -79.2111 214° Southwest 454 522 36,000  Level Miami Center
08:37AM 30.0367 -79.2903 213° Southwest 459 528 36,000  Level Miami Center
08:38AM 29.9394 -79.3647 214° Southwest 451 519 36,000  Level Miami Center
08:39AM 29.8358 -79.4436 213° Southwest 442 509 36,000  Level Miami Center
08:40AM 29.7342 -79.5250 215° Southwest 442 509 36,000 -180 Level Miami Center
08:41AM 29.6328 -79.6011 213° Southwest 447 514 35,700 -1,500 Descending Miami Center
08:42AM 29.5269 -79.6747 211° Southwest 447 514 33,100 -2,640 Descending Miami Center
08:43AM 29.4231 -79.7531 213° Southwest 447 514 30,500 -2,640 Descending Miami Center
08:44AM 29.3172 -79.8336 214° Southwest 447 514 27,900 -2,640 Descending Miami Center
08:45AM 29.2092 -79.9139 213° Southwest 458 527 25,300 -2,700 Descending Miami Center
08:46AM 29.0989 -79.9914 212° Southwest 464 534 22,600 -2,400 Descending Miami Center
08:47AM 29.0014 -80.0672 214° Southwest 454 522 20,500 -2,100 Descending Miami Center
08:48AM 28.9161 -80.1500 220° Southwest 434 499 18,500 -1,920 Descending Miami Center
08:50AM 28.8333 -80.4167 251° West 355 409 14,000 -1,440 Descending Orlando TRACON
08:51AM 28.8333 -80.5167 270° West 324 373 13,600 -900 Descending Orlando TRACON
08:53AM 28.8167 -80.6333 261° West 329 379 12,200 -1,560 Descending Orlando TRACON
08:54AM 28.8167 -80.7333 270° West 323 372 10,300 -1,140 Descending Orlando TRACON
08:55AM 28.8167 -80.8333 270° West 277 319 10,000 -420 Descending Orlando TRACON
08:56AM 28.8000 -80.9000 254° West 254 292 9,500 -840 Descending Orlando TRACON
08:57AM 28.8000 -80.9833 270° West 250 288 8,500 -1,500 Descending Orlando TRACON
08:58AM 28.7833 -81.0667 257° West 253 291 6,600 -1,200 Descending Orlando TRACON
08:59AM 28.7667 -81.1500 257° West 283 326 6,000 -420 Descending Orlando TRACON
09:00AM 28.7500 -81.2333 257° West 220 253 5,800 -600 Descending Orlando TRACON
09:01AM 28.7000 -81.2667 210° Southwest 201 231 4,800 -960 Descending Orlando TRACON
09:02AM 28.6500 -81.2833 196° South 181 208 3,900 -900 Descending Orlando TRACON
09:03AM 28.6000 -81.2833 180° South 181 208 3,000 -900 Descending Orlando TRACON
09:04AM 28.5500 -81.2833 180° South 174 200 2,100 -840 Descending Orlando TRACON
09:05AM 28.5167 -81.3000 204° Southwest 167 192 1,400 -780 Descending Orlando TRACON